createdAt,value
2019-01-21T00:00:21.444Z,0.00
2019-01-21T00:01:21.458Z,0.00
2019-01-21T00:02:21.425Z,0.00
2019-01-21T00:03:21.451Z,0.00
2019-01-21T00:04:21.410Z,0.00
2019-01-21T00:05:21.394Z,0.00
2019-01-21T00:06:21.396Z,0.00
2019-01-21T00:07:21.371Z,0.00
2019-01-21T00:08:21.371Z,0.00
2019-01-21T00:09:21.585Z,0.00
2019-01-21T00:10:21.365Z,0.00
2019-01-21T00:11:21.355Z,0.00
2019-01-21T00:12:21.329Z,0.00
2019-01-21T00:13:21.329Z,0.00
2019-01-21T00:14:21.328Z,0.00
2019-01-21T00:15:21.509Z,0.00
2019-01-21T00:16:21.507Z,0.00
2019-01-21T00:17:22.416Z,0.00
2019-01-21T00:18:21.299Z,0.00
2019-01-21T00:19:21.278Z,0.00
2019-01-21T00:20:21.261Z,0.00
2019-01-21T00:21:21.252Z,0.00
2019-01-21T00:22:21.244Z,0.00
2019-01-21T00:23:21.243Z,0.00
2019-01-21T00:24:21.215Z,0.00
2019-01-21T00:25:21.222Z,0.00
2019-01-21T00:26:21.210Z,0.00
2019-01-21T00:27:21.198Z,0.00
2019-01-21T00:28:21.392Z,0.00
2019-01-21T00:29:21.185Z,0.00
2019-01-21T00:30:21.369Z,0.00
2019-01-21T00:31:21.175Z,0.00
2019-01-21T00:32:21.155Z,0.00
2019-01-21T00:33:21.354Z,0.00
2019-01-21T00:34:21.140Z,0.00
2019-01-21T00:35:21.119Z,0.00
2019-01-21T00:36:21.109Z,0.00
2019-01-21T00:37:21.107Z,0.00
2019-01-21T00:38:21.092Z,0.00
2019-01-21T00:39:21.298Z,0.00
2019-01-21T00:40:21.076Z,0.00
2019-01-21T00:41:21.068Z,0.00
2019-01-21T00:42:21.062Z,0.00
2019-01-21T00:43:21.042Z,0.00
2019-01-21T00:44:21.041Z,0.00
2019-01-21T00:45:21.039Z,0.00
2019-01-21T00:46:21.026Z,0.00
2019-01-21T00:47:21.016Z,0.00
2019-01-21T00:48:21.208Z,0.00
2019-01-21T00:49:20.993Z,0.00
2019-01-21T00:50:21.010Z,0.00
2019-01-21T00:51:20.973Z,0.00
2019-01-21T00:52:20.991Z,0.00
2019-01-21T00:53:21.160Z,0.00
2019-01-21T00:54:21.166Z,0.00
2019-01-21T00:55:20.940Z,0.00
2019-01-21T00:56:20.940Z,0.00
2019-01-21T00:57:20.919Z,0.00
2019-01-21T00:58:20.905Z,0.00
2019-01-21T00:59:20.908Z,0.00
2019-01-21T01:00:20.889Z,0.00
2019-01-21T01:01:20.881Z,0.00
2019-01-21T01:02:21.080Z,0.00
2019-01-21T01:03:20.872Z,0.00
2019-01-21T01:04:20.870Z,0.00
2019-01-21T01:05:20.844Z,0.00
2019-01-21T01:06:20.838Z,0.00
2019-01-21T01:07:20.848Z,0.00
2019-01-21T01:08:20.810Z,0.00
2019-01-21T01:09:20.829Z,0.00
2019-01-21T01:10:20.790Z,0.00
2019-01-21T01:11:20.800Z,0.00
2019-01-21T01:12:20.794Z,0.00
2019-01-21T01:13:20.773Z,0.00
2019-01-21T01:14:20.760Z,0.00
2019-01-21T01:15:20.747Z,0.00
2019-01-21T01:16:20.750Z,0.00
2019-01-21T01:17:20.935Z,0.00
2019-01-21T01:18:20.728Z,0.00
2019-01-21T01:19:20.727Z,0.00
2019-01-21T01:20:20.734Z,0.00
2019-01-21T01:21:20.695Z,0.00
2019-01-21T01:22:20.707Z,0.00
2019-01-21T01:23:20.683Z,0.00
2019-01-21T01:24:20.694Z,0.00
2019-01-21T01:25:20.867Z,0.00
2019-01-21T01:26:20.659Z,0.00
2019-01-21T01:27:20.646Z,0.00
2019-01-21T01:28:20.625Z,0.00
2019-01-21T01:29:20.624Z,0.00
2019-01-21T01:30:20.608Z,0.00
2019-01-21T01:31:20.618Z,0.00
2019-01-21T01:32:20.796Z,0.00
2019-01-21T01:33:20.604Z,0.00
2019-01-21T01:34:20.573Z,0.00
2019-01-21T01:35:20.560Z,0.00
2019-01-21T01:36:20.561Z,0.00
2019-01-21T01:37:20.557Z,0.00
2019-01-21T01:38:20.538Z,0.00
2019-01-21T01:39:20.531Z,0.00
2019-01-21T01:40:20.731Z,0.00
2019-01-21T01:41:20.531Z,0.00
2019-01-21T01:42:20.509Z,0.00
2019-01-21T01:43:20.498Z,0.00
2019-01-21T01:44:20.485Z,0.00
2019-01-21T01:45:20.491Z,0.00
2019-01-21T01:46:20.457Z,0.00
2019-01-21T01:47:20.464Z,0.00
2019-01-21T01:48:20.641Z,0.00
2019-01-21T01:49:20.444Z,0.00
2019-01-21T01:50:20.432Z,0.00
2019-01-21T01:51:20.441Z,0.00
2019-01-21T01:52:20.413Z,0.00
2019-01-21T01:53:20.391Z,0.00
2019-01-21T01:54:20.582Z,0.00
2019-01-21T01:55:20.594Z,0.00
2019-01-21T01:56:20.579Z,0.00
2019-01-21T01:57:20.362Z,0.00
2019-01-21T01:58:20.549Z,0.00
2019-01-21T01:59:20.338Z,0.00
2019-01-21T02:00:20.341Z,0.00
2019-01-21T02:01:20.320Z,0.00
2019-01-21T02:02:20.515Z,0.00
2019-01-21T02:03:20.303Z,0.00
2019-01-21T02:04:20.285Z,0.00
2019-01-21T02:05:20.290Z,0.00
2019-01-21T02:06:20.269Z,0.00
2019-01-21T02:07:20.260Z,0.00
2019-01-21T02:08:20.249Z,0.00
2019-01-21T02:09:20.244Z,0.00
2019-01-21T02:10:20.237Z,0.00
2019-01-21T02:11:20.220Z,0.00
2019-01-21T02:12:20.411Z,0.00
2019-01-21T02:13:20.204Z,0.00
2019-01-21T02:14:20.200Z,0.00
2019-01-21T02:15:20.188Z,0.00
2019-01-21T02:16:20.171Z,0.00
2019-01-21T02:17:20.170Z,0.00
2019-01-21T02:18:20.359Z,0.00
2019-01-21T02:19:20.150Z,0.00
2019-01-21T02:20:20.144Z,0.00
2019-01-21T02:21:20.160Z,0.00
2019-01-21T02:22:20.117Z,0.00
2019-01-21T02:23:20.110Z,0.00
2019-01-21T02:24:20.097Z,0.00
2019-01-21T02:25:20.291Z,0.00
2019-01-21T02:26:20.094Z,0.00
2019-01-21T02:27:20.083Z,0.00
2019-01-21T02:28:20.055Z,0.00
2019-01-21T02:29:20.065Z,0.00
2019-01-21T02:30:20.044Z,0.00
2019-01-21T02:31:20.068Z,0.00
2019-01-21T02:32:20.032Z,0.00
2019-01-21T02:33:20.022Z,0.00
2019-01-21T02:34:20.206Z,0.00
2019-01-21T02:35:20.005Z,0.00
2019-01-21T02:36:20.017Z,0.00
2019-01-21T02:37:19.987Z,0.00
2019-01-21T02:38:19.987Z,0.00
2019-01-21T02:39:19.962Z,0.00
2019-01-21T02:40:19.946Z,0.00
2019-01-21T02:41:19.949Z,0.00
2019-01-21T02:42:19.932Z,0.00
2019-01-21T02:43:19.919Z,0.00
2019-01-21T02:44:19.932Z,0.00
2019-01-21T02:45:19.926Z,0.00
2019-01-21T02:46:19.902Z,0.00
2019-01-21T02:47:19.897Z,0.00
2019-01-21T02:48:19.896Z,0.00
2019-01-21T02:49:19.875Z,0.00
2019-01-21T02:50:20.068Z,0.00
2019-01-21T02:51:19.836Z,0.00
2019-01-21T02:52:19.848Z,0.00
2019-01-21T02:53:19.831Z,0.00
2019-01-21T02:54:19.822Z,0.00
2019-01-21T02:55:19.814Z,0.00
2019-01-21T02:56:19.996Z,0.00
2019-01-21T02:57:19.797Z,0.00
2019-01-21T02:58:19.793Z,0.00
2019-01-21T02:59:19.795Z,0.00
2019-01-21T03:00:19.751Z,0.00
2019-01-21T03:01:19.951Z,0.00
2019-01-21T03:02:19.941Z,0.00
2019-01-21T03:03:19.746Z,0.00
2019-01-21T03:04:19.730Z,0.00
2019-01-21T03:05:19.711Z,0.00
2019-01-21T03:06:19.707Z,0.00
2019-01-21T03:07:19.696Z,0.00
2019-01-21T03:08:19.682Z,0.00
2019-01-21T03:09:19.676Z,0.00
2019-01-21T03:10:19.873Z,0.00
2019-01-21T03:11:19.652Z,0.00
2019-01-21T03:12:19.639Z,0.00
2019-01-21T03:13:19.637Z,0.00
2019-01-21T03:14:19.622Z,0.00
2019-01-21T03:15:19.612Z,0.00
2019-01-21T03:16:19.600Z,0.00
2019-01-21T03:17:19.794Z,0.00
2019-01-21T03:18:19.597Z,0.00
2019-01-21T03:19:19.784Z,0.00
2019-01-21T03:20:19.566Z,0.00
2019-01-21T03:21:19.780Z,0.00
2019-01-21T03:22:19.559Z,0.00
2019-01-21T03:23:19.532Z,0.00
2019-01-21T03:24:19.735Z,0.00
2019-01-21T03:25:19.522Z,0.00
2019-01-21T03:26:19.514Z,0.00
2019-01-21T03:27:19.506Z,0.00
2019-01-21T03:28:19.491Z,0.00
2019-01-21T03:29:19.487Z,0.00
2019-01-21T03:30:19.468Z,0.00
2019-01-21T03:31:19.467Z,0.00
2019-01-21T03:32:19.461Z,0.00
2019-01-21T03:33:19.438Z,0.00
2019-01-21T03:34:19.444Z,0.00
2019-01-21T03:35:19.453Z,0.00
2019-01-21T03:36:19.567Z,0.00
2019-01-21T03:37:19.414Z,0.00
2019-01-21T03:38:19.393Z,0.00
2019-01-21T03:39:19.380Z,0.00
2019-01-21T03:40:19.586Z,0.00
2019-01-21T03:41:19.376Z,0.00
2019-01-21T03:42:19.370Z,0.00
2019-01-21T03:43:19.548Z,0.00
2019-01-21T03:44:19.351Z,0.00
2019-01-21T03:45:19.529Z,0.00
2019-01-21T03:46:19.325Z,0.00
2019-01-21T03:47:19.306Z,0.00
2019-01-21T03:48:19.298Z,0.00
2019-01-21T03:49:19.299Z,0.00
2019-01-21T03:50:19.285Z,0.00
2019-01-21T03:51:19.280Z,0.00
2019-01-21T03:52:19.263Z,0.00
2019-01-21T03:53:19.468Z,0.00
2019-01-21T03:54:19.454Z,0.00
2019-01-21T03:55:19.226Z,0.00
2019-01-21T03:56:19.247Z,0.00
2019-01-21T03:57:19.225Z,0.00
2019-01-21T03:58:19.213Z,0.00
2019-01-21T03:59:19.202Z,0.00
2019-01-21T04:00:19.179Z,0.00
2019-01-21T04:01:19.182Z,0.00
2019-01-21T04:02:19.171Z,0.00
2019-01-21T04:03:19.149Z,0.00
2019-01-21T04:04:19.146Z,0.00
2019-01-21T04:05:19.142Z,0.00
2019-01-21T04:06:19.140Z,0.00
2019-01-21T04:07:19.110Z,0.00
2019-01-21T04:08:19.132Z,0.00
2019-01-21T04:09:19.098Z,0.00
2019-01-21T04:10:19.096Z,0.00
2019-01-21T04:11:19.105Z,0.00
2019-01-21T04:12:19.071Z,0.00
2019-01-21T04:13:19.058Z,0.00
2019-01-21T04:14:19.247Z,0.00
2019-01-21T04:15:20.375Z,0.00
2019-01-21T04:16:19.227Z,0.00
2019-01-21T04:17:19.028Z,0.00
2019-01-21T04:18:24.467Z,0.00
2019-01-21T04:19:19.007Z,0.00
2019-01-21T04:20:18.999Z,0.00
2019-01-21T04:21:19.200Z,0.00
2019-01-21T04:22:19.002Z,0.00
2019-01-21T04:23:18.975Z,0.00
2019-01-21T04:24:18.960Z,0.00
2019-01-21T04:25:19.172Z,0.00
2019-01-21T04:26:19.146Z,0.00
2019-01-21T04:27:18.934Z,0.00
2019-01-21T04:28:18.938Z,0.00
2019-01-21T04:29:18.923Z,0.00
2019-01-21T04:30:18.902Z,0.00
2019-01-21T04:31:18.901Z,0.00
2019-01-21T04:32:19.090Z,0.00
2019-01-21T04:33:18.881Z,0.00
2019-01-21T04:34:18.852Z,0.00
2019-01-21T04:35:18.842Z,0.00
2019-01-21T04:36:19.038Z,0.00
2019-01-21T04:37:18.822Z,0.00
2019-01-21T04:38:18.816Z,0.00
2019-01-21T04:39:18.810Z,0.00
2019-01-21T04:40:18.805Z,0.00
2019-01-21T04:41:18.785Z,0.00
2019-01-21T04:42:18.783Z,0.00
2019-01-21T04:43:18.768Z,0.00
2019-01-21T04:44:18.771Z,0.00
2019-01-21T04:45:18.951Z,0.00
2019-01-21T04:46:19.223Z,0.00
2019-01-21T04:47:18.726Z,0.00
2019-01-21T04:48:18.921Z,0.00
2019-01-21T04:49:18.705Z,0.00
2019-01-21T04:50:18.703Z,0.00
2019-01-21T04:51:18.687Z,0.00
2019-01-21T04:52:18.879Z,0.00
2019-01-21T04:53:18.673Z,0.00
2019-01-21T04:54:18.685Z,0.00
2019-01-21T04:55:18.651Z,0.00
2019-01-21T04:56:18.644Z,0.00
2019-01-21T04:57:18.636Z,0.00
2019-01-21T04:58:18.835Z,0.00
2019-01-21T04:59:18.606Z,0.00
2019-01-21T05:00:18.802Z,0.00
2019-01-21T05:01:18.598Z,0.00
2019-01-21T05:02:18.585Z,0.00
2019-01-21T05:03:18.576Z,0.00
2019-01-21T05:04:18.571Z,0.00
2019-01-21T05:05:18.768Z,0.00
2019-01-21T05:06:18.553Z,0.00
2019-01-21T05:07:18.560Z,0.00
2019-01-21T05:08:18.526Z,0.00
2019-01-21T05:09:18.527Z,0.00
2019-01-21T05:10:18.528Z,0.00
2019-01-21T05:11:18.504Z,0.00
2019-01-21T05:12:18.510Z,0.00
2019-01-21T05:13:18.498Z,0.00
2019-01-21T05:14:18.466Z,0.00
2019-01-21T05:15:18.488Z,0.00
2019-01-21T05:16:18.447Z,0.00
2019-01-21T05:17:18.437Z,0.00
2019-01-21T05:18:18.422Z,0.00
2019-01-21T05:19:18.418Z,0.00
2019-01-21T05:20:18.414Z,0.00
2019-01-21T05:21:18.413Z,0.00
2019-01-21T05:22:18.382Z,0.00
2019-01-21T05:23:18.370Z,0.00
2019-01-21T05:24:18.379Z,0.00
2019-01-21T05:25:18.356Z,0.00
2019-01-21T05:26:18.346Z,0.00
2019-01-21T05:27:18.331Z,0.00
2019-01-21T05:28:18.330Z,0.00
2019-01-21T05:29:18.324Z,0.00
2019-01-21T05:30:18.313Z,0.00
2019-01-21T05:31:18.305Z,0.00
2019-01-21T05:32:18.292Z,0.00
2019-01-21T05:33:18.478Z,0.00
2019-01-21T05:34:18.273Z,0.00
2019-01-21T05:35:18.496Z,0.00
2019-01-21T05:36:18.253Z,0.00
2019-01-21T05:37:18.242Z,0.00
2019-01-21T05:38:18.434Z,0.00
2019-01-21T05:39:18.219Z,0.00
2019-01-21T05:40:18.216Z,0.00
2019-01-21T05:41:18.214Z,0.00
2019-01-21T05:42:18.186Z,0.00
2019-01-21T05:43:18.178Z,0.00
2019-01-21T05:44:18.185Z,0.00
2019-01-21T05:45:18.165Z,0.00
2019-01-21T05:46:18.154Z,0.00
2019-01-21T05:47:18.149Z,0.00
2019-01-21T05:48:18.132Z,0.00
2019-01-21T05:49:18.134Z,0.00
2019-01-21T05:50:18.319Z,0.00
2019-01-21T05:51:18.195Z,0.00
2019-01-21T05:52:18.294Z,0.00
2019-01-21T05:53:18.082Z,0.00
2019-01-21T05:54:18.075Z,0.00
2019-01-21T05:55:18.260Z,0.00
2019-01-21T05:56:18.270Z,0.00
2019-01-21T05:57:18.042Z,0.00
2019-01-21T05:58:18.035Z,0.00
2019-01-21T05:59:18.023Z,0.00
2019-01-21T06:00:18.011Z,0.00
2019-01-21T06:01:18.017Z,0.00
2019-01-21T06:02:18.011Z,0.00
2019-01-21T06:03:17.982Z,0.00
2019-01-21T06:04:18.186Z,0.00
2019-01-21T06:05:18.386Z,0.00
2019-01-21T06:06:17.948Z,0.00
2019-01-21T06:07:17.948Z,0.00
2019-01-21T06:08:18.144Z,0.00
2019-01-21T06:09:17.939Z,0.00
2019-01-21T06:10:17.943Z,0.00
2019-01-21T06:11:17.904Z,0.00
2019-01-21T06:12:17.894Z,0.00
2019-01-21T06:13:17.886Z,0.00
2019-01-21T06:14:17.868Z,0.00
2019-01-21T06:15:17.885Z,0.00
2019-01-21T06:16:17.856Z,0.00
2019-01-21T06:17:17.846Z,0.00
2019-01-21T06:18:17.849Z,0.00
2019-01-21T06:19:18.036Z,0.00
2019-01-21T06:20:17.808Z,0.00
2019-01-21T06:21:18.008Z,0.00
2019-01-21T06:22:17.794Z,0.00
2019-01-21T06:23:17.983Z,0.00
2019-01-21T06:24:17.769Z,0.00
2019-01-21T06:25:17.792Z,0.00
2019-01-21T06:26:17.780Z,0.00
2019-01-21T06:27:17.766Z,0.00
2019-01-21T06:28:17.746Z,0.00
2019-01-21T06:29:17.732Z,0.00
2019-01-21T06:30:17.714Z,0.00
2019-01-21T06:31:17.698Z,0.00
2019-01-21T06:32:17.889Z,0.00
2019-01-21T06:33:17.686Z,0.00
2019-01-21T06:34:17.676Z,0.00
2019-01-21T06:35:17.666Z,0.00
2019-01-21T06:36:17.645Z,0.00
2019-01-21T06:37:17.837Z,0.00
2019-01-21T06:38:17.628Z,0.00
2019-01-21T06:39:17.822Z,0.00
2019-01-21T06:40:17.609Z,0.00
2019-01-21T06:41:17.807Z,0.00
2019-01-21T06:42:17.883Z,0.00
2019-01-21T06:43:17.580Z,0.00
2019-01-21T06:44:17.787Z,0.00
2019-01-21T06:45:17.567Z,0.00
2019-01-21T06:46:17.555Z,0.00
2019-01-21T06:47:17.531Z,0.00
2019-01-21T06:48:17.724Z,0.00
2019-01-21T06:49:17.514Z,0.00
2019-01-21T06:50:17.510Z,0.00
2019-01-21T06:51:17.498Z,0.00
2019-01-21T06:52:17.488Z,0.00
2019-01-21T06:53:17.484Z,0.00
2019-01-21T06:54:17.675Z,4.00
2019-01-21T06:55:17.663Z,0.00
2019-01-21T06:56:17.647Z,0.00
2019-01-21T06:57:17.441Z,0.00
2019-01-21T06:58:17.431Z,4.00
2019-01-21T06:59:17.423Z,4.00
2019-01-21T07:00:17.411Z,4.00
2019-01-21T07:01:17.595Z,4.00
2019-01-21T07:02:17.390Z,4.00
2019-01-21T07:03:17.381Z,4.00
2019-01-21T07:04:17.365Z,4.00
2019-01-21T07:05:17.354Z,8.00
2019-01-21T07:06:17.347Z,8.00
2019-01-21T07:07:17.545Z,8.00
2019-01-21T07:08:17.332Z,8.00
2019-01-21T07:09:17.314Z,12.00
2019-01-21T07:10:17.320Z,12.00
2019-01-21T07:11:17.313Z,16.00
2019-01-21T07:12:17.283Z,16.00
2019-01-21T07:13:17.291Z,16.00
2019-01-21T07:14:17.293Z,20.00
2019-01-21T07:15:17.274Z,20.00
2019-01-21T07:16:17.262Z,24.00
2019-01-21T07:17:17.238Z,28.00
2019-01-21T07:18:17.231Z,32.00
2019-01-21T07:19:17.224Z,36.00
2019-01-21T07:20:17.216Z,36.00
2019-01-21T07:21:17.200Z,44.00
2019-01-21T07:22:17.196Z,44.00
2019-01-21T07:23:17.193Z,48.00
2019-01-21T07:24:17.373Z,52.00
2019-01-21T07:25:17.153Z,56.00
2019-01-21T07:26:17.176Z,60.00
2019-01-21T07:27:17.139Z,68.00
2019-01-21T07:28:17.147Z,76.00
2019-01-21T07:29:17.335Z,76.00
2019-01-21T07:30:17.125Z,84.00
2019-01-21T07:31:17.098Z,88.00
2019-01-21T07:32:17.083Z,92.00
2019-01-21T07:33:17.852Z,104.00
2019-01-21T07:34:17.103Z,108.00
2019-01-21T07:35:17.077Z,116.00
2019-01-21T07:36:17.046Z,120.00
2019-01-21T07:37:17.051Z,128.00
2019-01-21T07:38:17.041Z,132.00
2019-01-21T07:39:17.029Z,140.00
2019-01-21T07:40:17.024Z,148.00
2019-01-21T07:41:16.999Z,156.00
2019-01-21T07:42:16.990Z,164.00
2019-01-21T07:43:16.989Z,172.00
2019-01-21T07:44:16.969Z,180.00
2019-01-21T07:45:16.965Z,188.00
2019-01-21T07:46:16.951Z,196.00
2019-01-21T07:47:16.934Z,204.00
2019-01-21T07:48:16.935Z,212.00
2019-01-21T07:49:17.717Z,220.00
2019-01-21T07:50:17.125Z,228.00
2019-01-21T07:51:16.910Z,236.00
2019-01-21T07:52:16.896Z,240.00
2019-01-21T07:53:16.872Z,248.00
2019-01-21T07:54:16.863Z,256.00
2019-01-21T07:55:16.868Z,264.00
2019-01-21T07:56:17.062Z,272.00
2019-01-21T07:57:16.865Z,280.00
2019-01-21T07:58:17.042Z,288.00
2019-01-21T07:59:16.813Z,300.00
2019-01-21T08:00:16.804Z,304.00
2019-01-21T08:01:16.799Z,316.00
2019-01-21T08:02:16.784Z,320.00
2019-01-21T08:03:16.978Z,332.00
2019-01-21T08:04:16.765Z,340.00
2019-01-21T08:05:16.766Z,352.00
2019-01-21T08:06:16.753Z,356.00
2019-01-21T08:07:16.948Z,368.00
2019-01-21T08:08:16.727Z,376.00
2019-01-21T08:09:16.716Z,384.00
2019-01-21T08:10:16.919Z,392.00
2019-01-21T08:11:16.693Z,400.00
2019-01-21T08:12:16.713Z,412.00
2019-01-21T08:13:16.688Z,416.00
2019-01-21T08:14:16.670Z,424.00
2019-01-21T08:15:16.662Z,432.00
2019-01-21T08:16:16.642Z,436.00
2019-01-21T08:17:16.839Z,444.00
2019-01-21T08:18:16.632Z,452.00
2019-01-21T08:19:16.813Z,456.00
2019-01-21T08:20:16.604Z,464.00
2019-01-21T08:21:16.595Z,468.00
2019-01-21T08:22:16.586Z,472.00
2019-01-21T08:23:16.573Z,476.00
2019-01-21T08:24:16.583Z,484.00
2019-01-21T08:25:16.558Z,488.00
2019-01-21T08:26:16.537Z,492.00
2019-01-21T08:27:16.537Z,500.00
2019-01-21T08:28:17.248Z,504.00
2019-01-21T08:29:16.516Z,512.00
2019-01-21T08:30:16.507Z,520.00
2019-01-21T08:31:16.700Z,528.00
2019-01-21T08:32:16.482Z,532.00
2019-01-21T08:33:16.688Z,540.00
2019-01-21T08:34:16.461Z,548.00
2019-01-21T08:35:16.448Z,560.00
2019-01-21T08:36:16.452Z,564.00
2019-01-21T08:37:16.444Z,572.00
2019-01-21T08:38:16.434Z,584.00
2019-01-21T08:39:16.411Z,572.00
2019-01-21T08:40:16.403Z,600.00
2019-01-21T08:41:16.397Z,596.00
2019-01-21T08:42:16.382Z,568.00
2019-01-21T08:43:16.372Z,560.00
2019-01-21T08:44:16.375Z,560.00
2019-01-21T08:45:16.349Z,556.00
2019-01-21T08:46:16.357Z,556.00
2019-01-21T08:47:16.533Z,556.00
2019-01-21T08:48:16.334Z,560.00
2019-01-21T08:49:16.536Z,560.00
2019-01-21T08:50:16.505Z,564.00
2019-01-21T08:51:16.294Z,572.00
2019-01-21T08:52:16.294Z,576.00
2019-01-21T08:53:16.275Z,580.00
2019-01-21T08:54:16.261Z,584.00
2019-01-21T08:55:16.466Z,588.00
2019-01-21T08:56:16.246Z,584.00
2019-01-21T08:57:16.248Z,588.00
2019-01-21T08:58:16.220Z,592.00
2019-01-21T08:59:16.226Z,600.00
2019-01-21T09:00:16.215Z,600.00
2019-01-21T09:01:16.402Z,596.00
2019-01-21T09:02:16.400Z,592.00
2019-01-21T09:03:16.173Z,592.00
2019-01-21T09:04:16.166Z,588.00
2019-01-21T09:05:16.155Z,588.00
2019-01-21T09:06:16.146Z,588.00
2019-01-21T09:07:16.152Z,592.00
2019-01-21T09:08:16.341Z,600.00
2019-01-21T09:09:16.123Z,604.00
2019-01-21T09:10:16.127Z,608.00
2019-01-21T09:11:16.126Z,608.00
2019-01-21T09:12:16.089Z,608.00
2019-01-21T09:13:16.081Z,608.00
2019-01-21T09:14:16.071Z,616.00
2019-01-21T09:15:16.072Z,620.00
2019-01-21T09:16:16.046Z,632.00
2019-01-21T09:17:16.266Z,644.00
2019-01-21T09:18:16.045Z,656.00
2019-01-21T09:19:16.234Z,656.00
2019-01-21T09:20:16.031Z,656.00
2019-01-21T09:21:16.021Z,652.00
2019-01-21T09:22:15.990Z,656.00
2019-01-21T09:23:15.997Z,656.00
2019-01-21T09:24:15.983Z,660.00
2019-01-21T09:25:15.991Z,660.00
2019-01-21T09:26:16.175Z,660.00
2019-01-21T09:27:15.965Z,664.00
2019-01-21T09:28:15.952Z,668.00
2019-01-21T09:29:15.930Z,668.00
2019-01-21T09:30:15.924Z,660.00
2019-01-21T09:31:15.908Z,648.00
2019-01-21T09:32:16.104Z,644.00
2019-01-21T09:33:15.920Z,644.00
2019-01-21T09:34:15.892Z,648.00
2019-01-21T09:35:15.892Z,648.00
2019-01-21T09:36:15.861Z,648.00
2019-01-21T09:37:15.859Z,652.00
2019-01-21T09:38:15.848Z,652.00
2019-01-21T09:39:16.051Z,656.00
2019-01-21T09:40:15.832Z,656.00
2019-01-21T09:41:15.822Z,660.00
2019-01-21T09:42:15.813Z,664.00
2019-01-21T09:43:15.999Z,660.00
2019-01-21T09:44:15.824Z,664.00
2019-01-21T09:45:15.988Z,664.00
2019-01-21T09:46:15.982Z,660.00
2019-01-21T09:47:15.977Z,660.00
2019-01-21T09:48:15.751Z,664.00
2019-01-21T09:49:15.761Z,664.00
2019-01-21T09:50:15.948Z,664.00
2019-01-21T09:51:15.750Z,664.00
2019-01-21T09:52:15.720Z,660.00
2019-01-21T09:53:15.926Z,660.00
2019-01-21T09:54:15.729Z,656.00
2019-01-21T09:55:15.693Z,660.00
2019-01-21T09:56:15.686Z,660.00
2019-01-21T09:57:15.691Z,660.00
2019-01-21T09:58:15.866Z,660.00
2019-01-21T09:59:15.672Z,660.00
2019-01-21T10:00:15.666Z,660.00
2019-01-21T10:01:15.642Z,660.00
2019-01-21T10:02:15.827Z,664.00
2019-01-21T10:03:15.622Z,664.00
2019-01-21T10:04:15.641Z,664.00
2019-01-21T10:05:15.603Z,660.00
2019-01-21T10:06:15.598Z,656.00
2019-01-21T10:07:15.598Z,656.00
2019-01-21T10:08:15.575Z,656.00
2019-01-21T10:09:15.592Z,656.00
2019-01-21T10:10:15.559Z,656.00
2019-01-21T10:11:15.761Z,656.00
2019-01-21T10:12:15.770Z,656.00
2019-01-21T10:13:15.529Z,652.00
2019-01-21T10:14:15.724Z,648.00
2019-01-21T10:15:15.525Z,644.00
2019-01-21T10:16:15.733Z,632.00
2019-01-21T10:17:15.495Z,636.00
2019-01-21T10:18:15.498Z,644.00
2019-01-21T10:19:15.686Z,640.00
2019-01-21T10:20:15.466Z,640.00
2019-01-21T10:21:15.485Z,640.00
2019-01-21T10:22:15.452Z,644.00
2019-01-21T10:23:15.453Z,644.00
2019-01-21T10:24:15.443Z,644.00
2019-01-21T10:25:15.641Z,644.00
2019-01-21T10:26:15.433Z,644.00
2019-01-21T10:27:15.405Z,644.00
2019-01-21T10:28:15.416Z,644.00
2019-01-21T10:29:15.397Z,644.00
2019-01-21T10:30:15.379Z,648.00
2019-01-21T10:31:15.378Z,648.00
2019-01-21T10:32:15.569Z,644.00
2019-01-21T10:33:15.355Z,644.00
2019-01-21T10:34:15.342Z,640.00
2019-01-21T10:35:15.354Z,640.00
2019-01-21T10:36:15.335Z,632.00
2019-01-21T10:37:15.338Z,632.00
2019-01-21T10:38:15.322Z,632.00
2019-01-21T10:39:15.406Z,636.00
2019-01-21T10:40:15.300Z,636.00
2019-01-21T10:41:15.298Z,632.00
2019-01-21T10:42:15.286Z,636.00
2019-01-21T10:43:16.300Z,628.00
2019-01-21T10:44:15.270Z,628.00
2019-01-21T10:45:15.267Z,632.00
2019-01-21T10:46:15.454Z,632.00
2019-01-21T10:47:15.440Z,628.00
2019-01-21T10:48:15.232Z,628.00
2019-01-21T10:49:15.232Z,628.00
2019-01-21T10:50:15.220Z,624.00
2019-01-21T10:51:15.194Z,624.00
2019-01-21T10:52:15.191Z,624.00
2019-01-21T10:53:15.182Z,620.00
2019-01-21T10:54:15.199Z,624.00
2019-01-21T10:55:15.190Z,620.00
2019-01-21T10:56:15.160Z,616.00
2019-01-21T10:57:15.149Z,616.00
2019-01-21T10:58:15.153Z,612.00
2019-01-21T10:59:15.336Z,608.00
2019-01-21T11:00:15.134Z,608.00
2019-01-21T11:01:15.116Z,604.00
2019-01-21T11:02:15.105Z,604.00
2019-01-21T11:03:15.302Z,608.00
2019-01-21T11:04:15.084Z,608.00
2019-01-21T11:05:15.094Z,608.00
2019-01-21T11:06:15.077Z,608.00
2019-01-21T11:07:15.095Z,608.00
2019-01-21T11:08:15.063Z,608.00
2019-01-21T11:09:15.056Z,604.00
2019-01-21T11:10:15.052Z,604.00
2019-01-21T11:11:15.033Z,600.00
2019-01-21T11:12:15.031Z,596.00
2019-01-21T11:13:15.011Z,596.00
2019-01-21T11:14:15.012Z,592.00
2019-01-21T11:15:15.009Z,588.00
2019-01-21T11:16:14.986Z,584.00
2019-01-21T11:17:14.993Z,580.00
2019-01-21T11:18:14.987Z,580.00
2019-01-21T11:19:14.958Z,576.00
2019-01-21T11:20:14.965Z,580.00
2019-01-21T11:21:14.955Z,580.00
2019-01-21T11:22:14.932Z,576.00
2019-01-21T11:23:15.127Z,580.00
2019-01-21T11:24:15.314Z,572.00
2019-01-21T11:25:14.924Z,576.00
2019-01-21T11:26:14.905Z,576.00
2019-01-21T11:27:14.900Z,572.00
2019-01-21T11:28:14.928Z,572.00
2019-01-21T11:29:14.901Z,564.00
2019-01-21T11:30:14.875Z,568.00
2019-01-21T11:31:14.857Z,564.00
2019-01-21T11:32:14.857Z,564.00
2019-01-21T11:33:14.841Z,560.00
2019-01-21T11:34:15.040Z,560.00
2019-01-21T11:35:15.045Z,560.00
2019-01-21T11:36:14.822Z,552.00
2019-01-21T11:37:14.818Z,548.00
2019-01-21T11:38:16.108Z,548.00
2019-01-21T11:39:14.998Z,544.00
2019-01-21T11:40:14.986Z,540.00
2019-01-21T11:41:14.782Z,540.00
2019-01-21T11:42:14.986Z,540.00
2019-01-21T11:43:14.771Z,536.00
2019-01-21T11:44:14.757Z,532.00
2019-01-21T11:45:18.604Z,528.00
2019-01-21T11:46:14.761Z,528.00
2019-01-21T11:47:14.740Z,520.00
2019-01-21T11:48:14.722Z,520.00
2019-01-21T11:49:14.723Z,516.00
2019-01-21T11:50:14.709Z,512.00
2019-01-21T11:51:14.695Z,512.00
2019-01-21T11:52:17.604Z,508.00
2019-01-21T11:53:14.683Z,504.00
2019-01-21T11:54:14.688Z,500.00
2019-01-21T11:55:14.672Z,496.00
2019-01-21T11:56:14.667Z,500.00
2019-01-21T11:57:14.657Z,496.00
2019-01-21T11:58:14.654Z,496.00
2019-01-21T11:59:14.836Z,496.00
2019-01-21T12:00:14.623Z,496.00
2019-01-21T12:01:14.628Z,496.00
2019-01-21T12:02:14.606Z,492.00
2019-01-21T12:03:14.596Z,488.00
2019-01-21T12:04:14.586Z,492.00
2019-01-21T12:05:14.580Z,484.00
2019-01-21T12:06:14.571Z,484.00
2019-01-21T12:07:14.589Z,480.00
2019-01-21T12:08:14.559Z,480.00
2019-01-21T12:09:14.549Z,480.00
2019-01-21T12:10:14.547Z,480.00
2019-01-21T12:11:14.531Z,480.00
2019-01-21T12:12:14.529Z,476.00
2019-01-21T12:13:14.530Z,476.00
2019-01-21T12:14:14.515Z,476.00
2019-01-21T12:15:14.510Z,472.00
2019-01-21T12:16:14.502Z,468.00
2019-01-21T12:17:14.487Z,468.00
2019-01-21T12:18:14.481Z,468.00
2019-01-21T12:19:14.481Z,464.00
2019-01-21T12:20:17.126Z,468.00
2019-01-21T12:21:14.482Z,468.00
2019-01-21T12:22:14.459Z,464.00
2019-01-21T12:23:14.455Z,464.00
2019-01-21T12:24:14.432Z,464.00
2019-01-21T12:25:14.424Z,464.00
2019-01-21T12:26:14.411Z,464.00
2019-01-21T12:27:14.407Z,460.00
2019-01-21T12:28:14.407Z,464.00
2019-01-21T12:29:14.386Z,464.00
2019-01-21T12:30:14.397Z,464.00
2019-01-21T12:31:14.377Z,464.00
2019-01-21T12:32:14.370Z,460.00
2019-01-21T12:33:14.354Z,460.00
2019-01-21T12:34:14.350Z,460.00
2019-01-21T12:35:14.337Z,460.00
2019-01-21T12:36:14.335Z,456.00
2019-01-21T12:37:14.404Z,456.00
2019-01-21T12:38:14.340Z,456.00
2019-01-21T12:39:14.356Z,456.00
2019-01-21T12:40:14.311Z,456.00
2019-01-21T12:41:14.295Z,456.00
2019-01-21T12:42:14.289Z,452.00
2019-01-21T12:43:14.286Z,452.00
2019-01-21T12:44:14.273Z,452.00
2019-01-21T12:45:14.265Z,452.00
2019-01-21T12:46:14.251Z,448.00
2019-01-21T12:47:14.245Z,452.00
2019-01-21T12:48:14.247Z,452.00
2019-01-21T12:49:14.229Z,444.00
2019-01-21T12:50:14.218Z,444.00
2019-01-21T12:51:14.210Z,448.00
2019-01-21T12:52:14.204Z,448.00
2019-01-21T12:53:14.193Z,444.00
2019-01-21T12:54:14.188Z,444.00
2019-01-21T12:55:14.179Z,440.00
2019-01-21T12:56:14.170Z,444.00